Time;durP1;ratioP1;P1;durP2;ratioP2;P2;SDS_P1;SDS_P2;PMS_P1;PMS_P2;Temp;Humidity;BMP_temperature;BMP_pressure;BME280_temperature;BME280_humidity;BME280_pressure;Samples;Min_cycle;Max_cycle;Signal;HPM_P1;HPM_P2
2022/01/05 00:02:10;;;;;;;;;;;2.20;99.90;;;;;;5134987;27;19934;-56
2022/01/05 00:04:36;;;;;;;;;;;1.70;99.90;;;;;;5138515;27;19972;-55
2022/01/05 00:07:06;;;;;;;;;;;1.60;99.90;;;;;;5142961;27;20373;-56
2022/01/05 00:09:32;;;;;;;;;;;1.60;99.90;;;;;;5132224;27;19931;-65
2022/01/05 00:11:57;;;;;;;;;;;1.60;99.90;;;;;;5130815;27;19972;-62
2022/01/05 00:14:23;;;;;;;;;;;2.20;99.90;;;;;;5146903;27;19927;-60
2022/01/05 00:16:48;;;;;;;;;;;1.60;99.90;;;;;;5137442;27;19922;-67
2022/01/05 00:19:14;;;;;;;;;;;1.50;99.90;;;;;;5140864;27;19931;-66
2022/01/05 00:21:40;;;;;;;;;;;1.50;99.90;;;;;;5145414;27;19927;-66
2022/01/05 00:24:06;;;;;;;;;;;1.90;99.90;;;;;;5134299;27;20046;-68
2022/01/05 00:26:32;;;;;;;;;;;1.50;99.90;;;;;;5146888;27;19927;-70
2022/01/05 00:28:58;;;;;;;;;;;1.50;99.90;;;;;;5137534;27;20434;-59
2022/01/05 00:31:24;;;;;;;;;;;1.50;99.90;;;;;;5139384;27;19927;-59
2022/01/05 00:33:50;;;;;;;;;;;1.50;99.90;;;;;;5144976;27;20372;-58
2022/01/05 00:36:16;;;;;;;;;;;1.50;99.90;;;;;;5131583;27;20318;-60
2022/01/05 00:38:41;;;;;;;;;;;1.50;99.90;;;;;;5136661;27;19934;-61
2022/01/05 00:41:07;;;;;;;;;;;1.50;99.90;;;;;;5148204;27;19938;-58
2022/01/05 00:43:32;;;;;;;;;;;1.50;99.90;;;;;;5137753;27;19935;-58
2022/01/05 00:45:58;;;;;;;;;;;1.50;99.90;;;;;;5128901;27;19979;-57
2022/01/05 00:48:23;;;;;;;;;;;1.50;99.90;;;;;;5133581;27;20335;-59
2022/01/05 00:50:49;;;;;;;;;;;2.60;99.90;;;;;;5143795;27;20342;-58
2022/01/05 00:53:14;;;;;;;;;;;1.40;99.90;;;;;;5139760;27;19927;-58
2022/01/05 00:55:40;;;;;;;;;;;1.80;99.90;;;;;;5137109;27;19953;-58
2022/01/05 00:58:06;;;;;;;;;;;1.50;99.90;;;;;;5144165;27;20502;-59
2022/01/05 01:00:31;;;;;;;;;;;2.10;99.90;;;;;;5146006;27;19931;-59
2022/01/05 01:02:57;;;;;;;;;;;1.50;99.90;;;;;;5131834;27;19971;-61
2022/01/05 01:05:22;;;;;;;;;;;1.40;99.90;;;;;;5142281;27;19931;-61
2022/01/05 01:07:48;;;;;;;;;;;1.40;99.90;;;;;;5134786;27;19927;-58
2022/01/05 01:10:14;;;;;;;;;;;1.50;99.90;;;;;;5131235;27;19927;-59
2022/01/05 01:12:39;;;;;;;;;;;1.50;99.90;;;;;;5134773;27;20390;-58
2022/01/05 01:15:06;;;;;;;;;;;2.00;99.90;;;;;;5140988;27;20334;-59
2022/01/05 01:17:32;;;;;;;;;;;1.50;99.90;;;;;;5143177;27;19927;-58
2022/01/05 01:19:57;;;;;;;;;;;1.50;99.90;;;;;;5132844;27;19972;-59
2022/01/05 01:22:23;;;;;;;;;;;1.60;99.90;;;;;;5147004;27;19927;-59
2022/01/05 01:24:49;;;;;;;;;;;1.60;99.90;;;;;;5137307;27;20074;-63
2022/01/05 01:27:15;;;;;;;;;;;1.60;99.90;;;;;;5139395;27;20389;-59
2022/01/05 01:29:40;;;;;;;;;;;1.70;99.90;;;;;;5143205;27;20288;-64
2022/01/05 01:32:06;;;;;;;;;;;1.70;99.90;;;;;;5132901;27;19984;-61
2022/01/05 01:34:32;;;;;;;;;;;1.70;99.90;;;;;;5145584;27;19974;-67
2022/01/05 01:36:58;;;;;;;;;;;1.80;99.90;;;;;;5138121;27;19974;-67
2022/01/05 01:39:23;;;;;;;;;;;1.80;99.90;;;;;;5137859;27;20436;-66
2022/01/05 01:41:49;;;;;;;;;;;1.80;99.90;;;;;;5130547;27;19935;-67
2022/01/05 01:44:16;;;;;;;;;;;1.80;99.90;;;;;;5131686;27;19927;-66
2022/01/05 01:46:42;;;;;;;;;;;1.80;99.90;;;;;;5143599;27;20311;-61
2022/01/05 01:49:08;;;;;;;;;;;1.90;99.90;;;;;;5137913;27;19927;-67
2022/01/05 01:51:33;;;;;;;;;;;1.90;99.90;;;;;;5135278;27;19938;-59
2022/01/05 01:54:00;;;;;;;;;;;1.90;99.90;;;;;;5127787;27;19931;-69
2022/01/05 01:56:26;;;;;;;;;;;2.00;99.90;;;;;;5144322;27;19928;-66
2022/01/05 01:58:52;;;;;;;;;;;1.90;99.90;;;;;;5136791;27;19927;-69
2022/01/05 02:01:18;;;;;;;;;;;1.90;99.90;;;;;;5137829;27;19972;-66
2022/01/05 02:03:43;;;;;;;;;;;1.90;99.90;;;;;;5132301;27;19927;-62
2022/01/05 02:06:09;;;;;;;;;;;1.90;99.90;;;;;;5144538;27;19931;-61
2022/01/05 02:08:35;;;;;;;;;;;1.80;99.90;;;;;;5130154;27;20325;-61
2022/01/05 02:11:02;;;;;;;;;;;1.80;99.90;;;;;;5129045;27;20276;-61
2022/01/05 02:13:27;;;;;;;;;;;1.80;99.90;;;;;;5141601;27;19927;-61
2022/01/05 02:15:53;;;;;;;;;;;1.80;99.90;;;;;;5133238;27;20039;-61
2022/01/05 02:18:58;;;;;;;;;;;1.80;99.90;;;;;;5145842;27;19931;-62
2022/01/05 02:21:11;;;;;;;;;;;1.70;99.90;;;;;;5138022;27;19934;-61
2022/01/05 02:23:37;;;;;;;;;;;1.70;99.90;;;;;;5135355;27;20419;-61
2022/01/05 02:26:05;;;;;;;;;;;1.80;99.90;;;;;;5145841;27;19927;-58
2022/01/05 02:28:30;;;;;;;;;;;1.80;99.90;;;;;;5131623;27;19927;-58
2022/01/05 02:30:57;;;;;;;;;;;1.70;99.90;;;;;;5140862;27;19938;-61
2022/01/05 02:33:23;;;;;;;;;;;1.70;99.90;;;;;;5140468;27;20037;-58
2022/01/05 02:35:49;;;;;;;;;;;1.70;99.90;;;;;;5133544;27;19997;-60
2022/01/05 02:38:19;;;;;;;;;;;1.70;99.90;;;;;;5146014;27;19927;-58
2022/01/05 02:40:45;;;;;;;;;;;1.80;99.90;;;;;;5130475;27;19928;-58
2022/01/05 02:43:10;;;;;;;;;;;1.80;99.90;;;;;;5128846;27;20395;-58
2022/01/05 02:45:36;;;;;;;;;;;1.80;99.90;;;;;;5140412;27;19927;-59
2022/01/05 02:48:02;;;;;;;;;;;1.80;99.90;;;;;;5131515;27;20065;-59
2022/01/05 02:50:28;;;;;;;;;;;1.80;99.90;;;;;;5145307;27;20381;-65
2022/01/05 02:52:53;;;;;;;;;;;1.80;99.90;;;;;;5136579;27;20010;-62
2022/01/05 02:55:19;;;;;;;;;;;1.80;99.90;;;;;;5137849;27;20399;-58
2022/01/05 02:57:45;;;;;;;;;;;1.80;99.90;;;;;;5133003;27;20460;-58
2022/01/05 03:00:11;;;;;;;;;;;1.80;99.90;;;;;;5145190;27;20002;-58
2022/01/05 03:02:37;;;;;;;;;;;1.80;99.90;;;;;;5131617;27;19988;-59
2022/01/05 03:05:03;;;;;;;;;;;1.90;99.90;;;;;;5137849;27;19974;-64
2022/01/05 03:07:29;;;;;;;;;;;1.90;99.90;;;;;;5135532;27;19933;-58
2022/01/05 03:09:54;;;;;;;;;;;1.90;99.90;;;;;;5129406;27;19928;-59
2022/01/05 03:12:20;;;;;;;;;;;1.90;99.90;;;;;;5144798;27;20281;-58
2022/01/05 03:14:46;;;;;;;;;;;1.90;99.90;;;;;;5135099;27;19934;-65
2022/01/05 03:17:11;;;;;;;;;;;1.90;99.90;;;;;;5138492;27;19928;-61
2022/01/05 03:19:37;;;;;;;;;;;1.90;99.90;;;;;;5142565;27;20407;-63
2022/01/05 03:22:03;;;;;;;;;;;1.90;99.90;;;;;;5131415;27;19996;-62
2022/01/05 03:24:29;;;;;;;;;;;2.00;99.90;;;;;;5145865;27;20000;-65
2022/01/05 03:26:54;;;;;;;;;;;2.00;99.90;;;;;;5140669;27;19969;-58
2022/01/05 03:29:20;;;;;;;;;;;2.00;99.90;;;;;;5139327;27;20022;-57
2022/01/05 03:31:45;;;;;;;;;;;2.00;99.90;;;;;;5133201;27;20258;-64
2022/01/05 03:34:17;;;;;;;;;;;2.00;99.90;;;;;;5144750;27;19971;-58
2022/01/05 03:36:43;;;;;;;;;;;2.10;99.90;;;;;;5127919;27;20273;-58
2022/01/05 03:39:08;;;;;;;;;;;2.20;99.90;;;;;;5137825;27;19979;-58
2022/01/05 03:41:34;;;;;;;;;;;2.20;99.90;;;;;;5144441;27;19927;-59
2022/01/05 03:43:59;;;;;;;;;;;3.60;99.90;;;;;;5131436;27;19938;-59
2022/01/05 03:46:25;;;;;;;;;;;2.30;99.90;;;;;;5143325;27;20404;-58
2022/01/05 03:48:51;;;;;;;;;;;2.30;99.90;;;;;;5135058;27;19999;-58
2022/01/05 03:51:16;;;;;;;;;;;2.40;99.90;;;;;;5138049;27;19942;-59
2022/01/05 03:53:42;;;;;;;;;;;2.50;99.90;;;;;;5145920;27;19934;-58
2022/01/05 03:56:07;;;;;;;;;;;3.20;99.90;;;;;;5135116;27;19927;-58
2022/01/05 03:58:33;;;;;;;;;;;2.60;99.90;;;;;;5140780;27;19938;-58
2022/01/05 04:00:58;;;;;;;;;;;2.50;99.90;;;;;;5143751;27;20465;-59
2022/01/05 04:03:24;;;;;;;;;;;2.50;99.90;;;;;;5134210;27;20327;-61
2022/01/05 04:05:50;;;;;;;;;;;2.60;99.90;;;;;;5147230;27;20447;-62
2022/01/05 04:08:15;;;;;;;;;;;2.60;99.90;;;;;;5131563;27;19927;-60
2022/01/05 04:10:41;;;;;;;;;;;2.60;99.90;;;;;;5131452;27;20055;-61
2022/01/05 04:13:07;;;;;;;;;;;2.50;99.90;;;;;;5140535;27;19929;-59
2022/01/05 04:15:32;;;;;;;;;;;2.60;99.90;;;;;;5138497;27;19935;-63
2022/01/05 04:17:58;;;;;;;;;;;2.50;99.90;;;;;;5146734;27;20368;-60
2022/01/05 04:20:24;;;;;;;;;;;2.60;99.90;;;;;;5134746;27;19927;-60
2022/01/05 04:22:49;;;;;;;;;;;3.00;99.90;;;;;;5144181;27;19927;-61
2022/01/05 04:25:15;;;;;;;;;;;2.80;99.90;;;;;;5142003;27;19927;-59
2022/01/05 04:27:41;;;;;;;;;;;3.00;99.90;;;;;;5136613;27;19966;-59
2022/01/05 04:30:07;;;;;;;;;;;3.10;99.90;;;;;;5147854;27;19931;-58
2022/01/05 04:32:34;;;;;;;;;;;3.20;99.90;;;;;;5135305;27;20412;-59
2022/01/05 04:35:00;;;;;;;;;;;3.20;99.90;;;;;;5140872;27;19928;-59
2022/01/05 04:37:25;;;;;;;;;;;3.20;99.90;;;;;;5142950;27;19927;-59
2022/01/05 04:39:51;;;;;;;;;;;3.20;99.90;;;;;;5136930;27;19973;-58
2022/01/05 04:42:16;;;;;;;;;;;3.30;99.90;;;;;;5131339;27;20338;-58
2022/01/05 04:44:42;;;;;;;;;;;3.20;99.90;;;;;;5136532;27;19923;-58
2022/01/05 04:47:08;;;;;;;;;;;3.20;99.90;;;;;;5141377;27;19928;-60
2022/01/05 04:49:34;;;;;;;;;;;3.20;99.90;;;;;;5143682;27;19931;-58
2022/01/05 04:51:59;;;;;;;;;;;3.20;99.90;;;;;;5129161;27;20312;-58
2022/01/05 04:54:25;;;;;;;;;;;3.10;99.90;;;;;;5146842;27;20053;-57
2022/01/05 04:56:50;;;;;;;;;;;3.10;99.90;;;;;;5136707;27;19927;-56
2022/01/05 04:59:16;;;;;;;;;;;3.70;99.90;;;;;;5141439;27;19927;-57
2022/01/05 05:01:41;;;;;;;;;;;3.10;99.90;;;;;;5136157;27;20372;-59
2022/01/05 05:04:07;;;;;;;;;;;3.10;99.90;;;;;;5132030;27;20410;-57
2022/01/05 05:06:32;;;;;;;;;;;3.10;99.90;;;;;;5146062;27;19927;-60
2022/01/05 05:08:58;;;;;;;;;;;3.00;99.90;;;;;;5131092;27;20411;-59
2022/01/05 05:11:24;;;;;;;;;;;3.00;99.90;;;;;;5130179;27;20049;-57
2022/01/05 05:13:49;;;;;;;;;;;3.70;99.90;;;;;;5145704;27;19934;-58
2022/01/05 05:16:15;;;;;;;;;;;3.00;99.90;;;;;;5135995;27;19944;-59
2022/01/05 05:18:40;;;;;;;;;;;3.10;99.90;;;;;;5136874;27;19971;-56
2022/01/05 05:21:06;;;;;;;;;;;3.40;99.90;;;;;;5140334;27;20372;-56
2022/01/05 05:23:32;;;;;;;;;;;3.10;99.90;;;;;;5143302;27;19927;-56
2022/01/05 05:25:57;;;;;;;;;;;3.10;99.90;;;;;;5146333;27;20436;-55
2022/01/05 05:28:23;;;;;;;;;;;3.10;99.90;;;;;;5133041;27;19927;-67
2022/01/05 05:30:48;;;;;;;;;;;3.10;99.90;;;;;;5143832;27;19934;-56
2022/01/05 05:33:14;;;;;;;;;;;3.30;99.90;;;;;;5132259;27;19992;-56
2022/01/05 05:35:41;;;;;;;;;;;3.10;99.90;;;;;;5130523;27;20064;-57
2022/01/05 05:38:07;;;;;;;;;;;3.10;99.90;;;;;;5129094;27;20295;-61
2022/01/05 05:40:33;;;;;;;;;;;3.20;99.90;;;;;;5132053;27;19972;-56
2022/01/05 05:42:58;;;;;;;;;;;3.20;99.90;;;;;;5129619;27;19934;-65
2022/01/05 05:45:24;;;;;;;;;;;3.30;99.90;;;;;;5130990;27;19927;-56
2022/01/05 05:47:49;;;;;;;;;;;3.30;99.90;;;;;;5145028;27;19931;-56
2022/01/05 05:50:15;;;;;;;;;;;3.40;99.90;;;;;;5132776;27;19934;-58
2022/01/05 05:52:41;;;;;;;;;;;3.40;99.90;;;;;;5142042;27;19927;-58
2022/01/05 05:55:06;;;;;;;;;;;3.40;99.90;;;;;;5120270;27;20048;-57
2022/01/05 05:57:32;;;;;;;;;;;3.50;99.90;;;;;;5135781;27;19934;-58
2022/01/05 05:59:57;;;;;;;;;;;4.30;99.90;;;;;;5145410;27;19934;-56
2022/01/05 06:02:23;;;;;;;;;;;3.40;99.90;;;;;;5130578;27;20407;-58
2022/01/05 06:04:48;;;;;;;;;;;3.40;99.90;;;;;;5135841;27;19934;-58
2022/01/05 06:07:14;;;;;;;;;;;3.40;99.90;;;;;;5138967;27;19928;-59
2022/01/05 06:09:40;;;;;;;;;;;3.40;99.90;;;;;;5129947;27;19931;-61
2022/01/05 06:12:05;;;;;;;;;;;3.40;99.90;;;;;;5129782;27;19927;-56
2022/01/05 06:14:31;;;;;;;;;;;3.40;99.90;;;;;;5142883;27;20059;-56
2022/01/05 06:16:56;;;;;;;;;;;3.40;99.90;;;;;;5131327;27;19930;-65
2022/01/05 06:19:22;;;;;;;;;;;3.40;99.90;;;;;;5140375;27;19978;-56
2022/01/05 06:21:50;;;;;;;;;;;3.40;99.90;;;;;;5133663;27;20019;-61
2022/01/05 06:24:16;;;;;;;;;;;3.40;99.90;;;;;;5145238;27;19927;-59
2022/01/05 06:26:41;;;;;;;;;;;3.50;99.90;;;;;;5142853;27;19934;-58
2022/01/05 06:29:08;;;;;;;;;;;3.50;99.90;;;;;;5138598;27;20367;-60
2022/01/05 06:31:34;;;;;;;;;;;3.50;99.90;;;;;;5135347;27;19931;-63
2022/01/05 06:33:59;;;;;;;;;;;3.50;99.90;;;;;;5144276;27;19991;-56
2022/01/05 06:36:25;;;;;;;;;;;3.50;99.90;;;;;;5132454;27;19950;-58
2022/01/05 06:38:51;;;;;;;;;;;3.50;99.90;;;;;;5141855;27;20594;-56
2022/01/05 06:41:16;;;;;;;;;;;3.50;99.90;;;;;;5129563;27;19924;-64
2022/01/05 06:43:42;;;;;;;;;;;3.50;99.90;;;;;;5128260;27;19935;-61
2022/01/05 06:46:07;;;;;;;;;;;3.50;99.90;;;;;;5133019;27;20171;-63
2022/01/05 06:48:33;;;;;;;;;;;3.90;99.90;;;;;;5132746;27;19972;-62
2022/01/05 06:50:58;;;;;;;;;;;3.60;99.90;;;;;;5139112;27;19928;-58
2022/01/05 06:53:24;;;;;;;;;;;4.00;99.90;;;;;;5140247;27;19972;-58
2022/01/05 06:55:50;;;;;;;;;;;3.60;99.90;;;;;;5132658;27;20296;-64
2022/01/05 06:58:15;;;;;;;;;;;4.20;99.90;;;;;;5135434;27;19927;-63
2022/01/05 07:00:41;;;;;;;;;;;3.70;99.90;;;;;;5139906;27;19975;-58
2022/01/05 07:03:06;;;;;;;;;;;3.70;99.90;;;;;;5144969;27;19927;-56
2022/01/05 07:05:32;;;;;;;;;;;3.80;99.90;;;;;;5133959;27;19933;-57
2022/01/05 07:07:58;;;;;;;;;;;3.80;99.90;;;;;;5137258;27;20022;-56
2022/01/05 07:10:23;;;;;;;;;;;3.80;99.90;;;;;;5127840;27;19928;-57
2022/01/05 07:12:49;;;;;;;;;;;3.80;99.90;;;;;;5134645;27;20481;-59
2022/01/05 07:15:15;;;;;;;;;;;3.90;99.90;;;;;;5136987;27;20323;-57
2022/01/05 07:17:40;;;;;;;;;;;3.90;99.90;;;;;;5141167;27;19950;-60
2022/01/05 07:20:06;;;;;;;;;;;3.90;99.90;;;;;;5131495;27;20043;-60
2022/01/05 07:22:32;;;;;;;;;;;3.90;99.90;;;;;;5143642;27;19940;-61
2022/01/05 07:24:58;;;;;;;;;;;3.90;99.90;;;;;;5136411;27;20378;-60
2022/01/05 07:27:24;;;;;;;;;;;3.90;99.90;;;;;;5135524;27;19928;-59
2022/01/05 07:29:49;;;;;;;;;;;3.90;99.90;;;;;;5137365;27;19988;-57
2022/01/05 07:32:15;;;;;;;;;;;3.90;99.90;;;;;;5136729;27;20403;-60
2022/01/05 07:34:40;;;;;;;;;;;4.00;99.90;;;;;;5141446;27;20300;-58
2022/01/05 07:37:06;;;;;;;;;;;4.00;99.90;;;;;;5133897;27;20018;-57
2022/01/05 07:39:32;;;;;;;;;;;3.90;99.90;;;;;;5142252;27;20342;-57
2022/01/05 07:41:57;;;;;;;;;;;4.00;99.90;;;;;;5149142;27;19927;-57
2022/01/05 07:44:23;;;;;;;;;;;4.40;99.90;;;;;;5137135;27;20011;-56
2022/01/05 07:46:48;;;;;;;;;;;4.00;99.90;;;;;;5137788;27;19928;-56
2022/01/05 07:49:14;;;;;;;;;;;4.00;99.90;;;;;;5141067;27;20433;-56
2022/01/05 07:51:40;;;;;;;;;;;4.00;99.90;;;;;;5137218;27;19937;-56
2022/01/05 07:54:05;;;;;;;;;;;4.10;99.90;;;;;;5146834;27;19936;-56
2022/01/05 07:56:31;;;;;;;;;;;4.00;99.90;;;;;;5135439;27;19970;-56
2022/01/05 07:58:56;;;;;;;;;;;4.10;99.90;;;;;;5141114;27;20334;-56
2022/01/05 08:01:22;;;;;;;;;;;4.00;99.90;;;;;;5139552;27;19928;-61
2022/01/05 08:03:48;;;;;;;;;;;4.00;99.90;;;;;;5135011;27;20783;-57
2022/01/05 08:06:14;;;;;;;;;;;4.00;99.90;;;;;;5147753;27;19978;-56
2022/01/05 08:08:40;;;;;;;;;;;4.00;99.90;;;;;;5131483;27;19931;-60
2022/01/05 08:11:05;;;;;;;;;;;4.10;99.90;;;;;;5140990;27;19927;-60
2022/01/05 08:13:31;;;;;;;;;;;4.30;99.90;;;;;;5138772;27;20297;-59
2022/01/05 08:15:56;;;;;;;;;;;4.30;99.90;;;;;;5130798;27;19934;-60
2022/01/05 08:18:22;;;;;;;;;;;4.30;99.90;;;;;;5147641;27;19963;-56
2022/01/05 08:20:48;;;;;;;;;;;4.40;99.90;;;;;;5137580;27;20683;-58
2022/01/05 08:23:17;;;;;;;;;;;4.40;99.90;;;;;;5130983;27;19927;-60
2022/01/05 08:25:43;;;;;;;;;;;4.40;99.90;;;;;;5133728;27;19927;-57
2022/01/05 08:28:11;;;;;;;;;;;4.30;99.90;;;;;;5145159;27;19927;-59
2022/01/05 08:30:37;;;;;;;;;;;4.30;99.90;;;;;;5130482;27;20249;-61
2022/01/05 08:33:03;;;;;;;;;;;4.30;99.90;;;;;;5140128;27;19934;-56
2022/01/05 08:35:29;;;;;;;;;;;4.30;99.90;;;;;;5132687;27;20821;-57
2022/01/05 08:37:54;;;;;;;;;;;4.30;99.90;;;;;;5129103;27;19927;-56
2022/01/05 08:40:21;;;;;;;;;;;4.30;99.90;;;;;;5133221;27;19942;-56
2022/01/05 08:42:47;;;;;;;;;;;4.40;99.90;;;;;;5135748;27;19927;-57
2022/01/05 08:45:14;;;;;;;;;;;4.70;99.90;;;;;;5142535;27;19927;-56
2022/01/05 08:47:40;;;;;;;;;;;4.40;99.90;;;;;;5130588;27;19938;-55
2022/01/05 08:50:06;;;;;;;;;;;4.40;99.90;;;;;;5145209;27;20346;-56
2022/01/05 08:52:32;;;;;;;;;;;4.50;99.90;;;;;;5138234;27;19954;-57
2022/01/05 08:54:57;;;;;;;;;;;5.00;99.90;;;;;;5138256;27;19931;-57
2022/01/05 08:57:23;;;;;;;;;;;4.60;99.90;;;;;;5137578;27;19923;-57
2022/01/05 08:59:51;;;;;;;;;;;4.70;99.90;;;;;;5133123;27;20349;-57
2022/01/05 09:02:17;;;;;;;;;;;4.70;99.90;;;;;;5129426;27;20395;-56
2022/01/05 09:04:43;;;;;;;;;;;5.00;99.90;;;;;;5132158;27;19961;-56
2022/01/05 09:07:09;;;;;;;;;;;6.00;99.90;;;;;;5129663;27;20299;-60
2022/01/05 09:09:34;;;;;;;;;;;4.90;99.90;;;;;;5132283;27;19934;-58
2022/01/05 09:12:00;;;;;;;;;;;5.00;99.90;;;;;;5133198;27;19931;-63
2022/01/05 09:14:25;;;;;;;;;;;5.00;99.90;;;;;;5133887;27;20368;-61
2022/01/05 09:16:52;;;;;;;;;;;5.60;99.90;;;;;;5142256;27;19934;-63
2022/01/05 09:19:18;;;;;;;;;;;5.00;99.90;;;;;;5127753;27;19927;-56
2022/01/05 09:21:48;;;;;;;;;;;5.70;99.90;;;;;;5129354;27;20034;-60
2022/01/05 09:24:14;;;;;;;;;;;5.00;99.90;;;;;;5133351;27;19931;-57
2022/01/05 09:26:40;;;;;;;;;;;5.10;99.90;;;;;;5130347;27;19931;-61
2022/01/05 09:29:06;;;;;;;;;;;5.00;99.90;;;;;;5129244;27;19934;-61
2022/01/05 09:31:32;;;;;;;;;;;5.10;99.90;;;;;;5132925;27;19933;-62
2022/01/05 09:33:57;;;;;;;;;;;5.10;99.90;;;;;;5132620;27;20018;-56
2022/01/05 09:36:32;;;;;;;;;;;5.10;99.90;;;;;;5128129;27;19987;-60
2022/01/05 09:42:00;;;;;;;;;;;5.50;99.90;;;;;;5131897;27;20381;-57
2022/01/05 09:44:31;;;;;;;;;;;5.30;99.90;;;;;;5132120;27;19927;-68
2022/01/05 09:46:59;;;;;;;;;;;5.30;99.90;;;;;;5129651;27;19985;-64
2022/01/05 09:49:31;;;;;;;;;;;5.40;99.90;;;;;;5137092;27;19980;-66
2022/01/05 09:52:00;;;;;;;;;;;5.40;99.90;;;;;;5145634;27;19966;-57
2022/01/05 09:54:26;;;;;;;;;;;5.50;99.90;;;;;;5137247;27;19927;-60
2022/01/05 09:56:52;;;;;;;;;;;6.00;99.90;;;;;;5138418;27;19927;-60
2022/01/05 09:59:18;;;;;;;;;;;5.70;99.90;;;;;;5132232;27;19934;-56
2022/01/05 10:01:43;;;;;;;;;;;5.80;99.90;;;;;;5129253;27;20347;-56
2022/01/05 10:04:09;;;;;;;;;;;5.90;99.90;;;;;;5141122;27;19933;-60
2022/01/05 10:06:37;;;;;;;;;;;6.10;99.90;;;;;;5131729;27;20026;-64
2022/01/05 10:09:03;;;;;;;;;;;6.20;99.90;;;;;;5133788;27;19930;-61
2022/01/05 10:11:29;;;;;;;;;;;6.20;99.90;;;;;;5147126;27;20345;-58
2022/01/05 10:13:55;;;;;;;;;;;6.20;99.90;;;;;;5128458;27;19972;-60
2022/01/05 10:16:20;;;;;;;;;;;6.20;99.90;;;;;;5129286;27;19972;-59
2022/01/05 10:18:46;;;;;;;;;;;6.30;99.90;;;;;;5131389;27;19927;-59
2022/01/05 10:21:14;;;;;;;;;;;6.30;99.90;;;;;;5132259;27;20378;-58
2022/01/05 10:23:50;;;;;;;;;;;6.40;99.90;;;;;;5133592;27;19927;-58
2022/01/05 10:26:26;;;;;;;;;;;6.40;99.90;;;;;;5138890;27;19928;-57
2022/01/05 10:28:55;;;;;;;;;;;6.50;99.90;;;;;;5133024;27;19992;-57
2022/01/05 10:31:23;;;;;;;;;;;6.60;99.90;;;;;;5129628;27;20026;-56
2022/01/05 10:33:48;;;;;;;;;;;6.70;99.90;;;;;;5131339;27;20504;-57
2022/01/05 10:36:14;;;;;;;;;;;6.80;99.90;;;;;;5126909;27;20327;-56
2022/01/05 10:39:00;;;;;;;;;;;6.90;99.90;;;;;;5126796;27;20246;-56
2022/01/05 10:41:27;;;;;;;;;;;6.90;99.90;;;;;;5140542;27;19994;-56
2022/01/05 10:44:11;;;;;;;;;;;7.10;99.90;;;;;;5131922;27;19930;-56
2022/01/05 10:46:39;;;;;;;;;;;7.10;99.90;;;;;;5131877;27;19927;-56
2022/01/05 10:49:05;;;;;;;;;;;7.20;99.90;;;;;;5128563;27;19956;-58
2022/01/05 10:51:31;;;;;;;;;;;7.30;99.90;;;;;;5127348;27;20047;-59
2022/01/05 10:54:17;;;;;;;;;;;7.30;99.90;;;;;;5124277;27;19928;-57
2022/01/05 10:56:43;;;;;;;;;;;7.40;99.90;;;;;;5125481;27;20417;-58
2022/01/05 10:59:09;;;;;;;;;;;7.40;99.90;;;;;;5138205;27;19938;-57
2022/01/05 11:01:35;;;;;;;;;;;7.40;99.90;;;;;;5131895;27;19927;-65
2022/01/05 11:04:14;;;;;;;;;;;7.60;99.90;;;;;;5134153;27;20309;-68
2022/01/05 11:06:52;;;;;;;;;;;7.70;99.90;;;;;;5141868;27;19931;-62
2022/01/05 11:09:19;;;;;;;;;;;7.80;99.90;;;;;;5132985;27;19980;-61
2022/01/05 11:11:46;;;;;;;;;;;7.90;99.90;;;;;;5139696;27;20613;-63
2022/01/05 11:14:15;;;;;;;;;;;7.80;99.90;;;;;;5138740;27;19987;-65
2022/01/05 11:16:42;;;;;;;;;;;7.90;99.90;;;;;;5132702;27;20090;-58
2022/01/05 11:19:13;;;;;;;;;;;8.00;99.90;;;;;;5138244;27;20552;-62
2022/01/05 11:21:40;;;;;;;;;;;7.90;99.90;;;;;;5137241;27;20396;-68
2022/01/05 11:24:05;;;;;;;;;;;7.80;99.90;;;;;;5133015;27;20476;-68
2022/01/05 11:26:35;;;;;;;;;;;7.80;99.90;;;;;;5139743;27;19942;-63
2022/01/05 11:29:03;;;;;;;;;;;7.80;99.90;;;;;;5137288;27;19938;-64
2022/01/05 11:31:30;;;;;;;;;;;7.80;99.90;;;;;;5137256;27;20048;-60
2022/01/05 11:33:56;;;;;;;;;;;8.00;99.90;;;;;;5137256;27;20379;-62
2022/01/05 11:36:22;;;;;;;;;;;7.90;99.90;;;;;;5128519;27;19927;-66
2022/01/05 11:38:48;;;;;;;;;;;7.90;99.90;;;;;;5131726;27;20305;-67
2022/01/05 11:41:15;;;;;;;;;;;8.20;99.90;;;;;;5137921;27;19927;-56
2022/01/05 11:43:41;;;;;;;;;;;7.90;99.90;;;;;;5129021;27;19931;-60
2022/01/05 11:46:20;;;;;;;;;;;7.80;99.90;;;;;;5129797;27;20383;-63
2022/01/05 11:48:58;;;;;;;;;;;7.80;99.90;;;;;;5131309;27;19927;-69
2022/01/05 11:51:41;;;;;;;;;;;7.80;99.90;;;;;;5136143;27;20410;-57
2022/01/05 11:54:16;;;;;;;;;;;7.90;99.90;;;;;;5144095;27;20382;-60
2022/01/05 11:56:43;;;;;;;;;;;8.10;99.90;;;;;;5128612;27;19927;-57
2022/01/05 11:59:33;;;;;;;;;;;8.10;99.90;;;;;;5130699;27;20026;-58
2022/01/05 12:02:07;;;;;;;;;;;8.10;99.90;;;;;;5140798;27;19934;-58
2022/01/05 12:04:56;;;;;;;;;;;8.10;99.90;;;;;;5134246;27;19934;-61
2022/01/05 12:07:38;;;;;;;;;;;8.10;99.90;;;;;;5130919;27;19935;-60
2022/01/05 12:10:12;;;;;;;;;;;8.10;99.90;;;;;;5130315;27;19935;-56
2022/01/05 12:12:51;;;;;;;;;;;8.00;99.90;;;;;;5139899;27;19927;-58
2022/01/05 12:15:36;;;;;;;;;;;7.90;99.90;;;;;;5134370;27;20308;-58
2022/01/05 12:18:02;;;;;;;;;;;7.90;99.90;;;;;;5128514;27;19982;-60
2022/01/05 12:20:32;;;;;;;;;;;7.80;99.90;;;;;;5131376;27;20542;-60
2022/01/05 12:23:18;;;;;;;;;;;7.70;99.90;;;;;;5131408;27;19934;-58
2022/01/05 12:26:02;;;;;;;;;;;7.70;99.90;;;;;;5129085;27;19980;-59
2022/01/05 12:28:29;;;;;;;;;;;7.80;99.90;;;;;;5129848;27;20391;-56
2022/01/05 12:30:55;;;;;;;;;;;7.80;99.90;;;;;;5134507;27;19927;-56
2022/01/05 12:33:21;;;;;;;;;;;7.80;99.90;;;;;;5123040;27;19927;-56
2022/01/05 12:35:48;;;;;;;;;;;7.70;99.90;;;;;;5129141;27;20012;-58
2022/01/05 12:38:30;;;;;;;;;;;7.60;99.90;;;;;;5137176;27;19985;-57
2022/01/05 12:40:55;;;;;;;;;;;7.90;99.90;;;;;;5129985;27;19934;-58
2022/01/05 12:43:21;;;;;;;;;;;7.70;99.90;;;;;;5133300;27;19927;-59
2022/01/05 12:45:46;;;;;;;;;;;7.60;99.90;;;;;;5142683;27;19927;-57
2022/01/05 12:48:30;;;;;;;;;;;7.50;99.90;;;;;;5140857;27;19927;-60
2022/01/05 12:51:11;;;;;;;;;;;7.50;99.90;;;;;;5136295;27;19949;-59
2022/01/05 12:53:49;;;;;;;;;;;7.50;99.90;;;;;;5132348;27;19931;-58
2022/01/05 12:56:26;;;;;;;;;;;7.60;99.90;;;;;;5127668;27;20316;-57
2022/01/05 12:58:52;;;;;;;;;;;7.50;99.90;;;;;;5133352;27;20042;-60
2022/01/05 13:01:18;;;;;;;;;;;7.60;99.90;;;;;;5135221;27;20010;-57
2022/01/05 13:03:44;;;;;;;;;;;7.60;99.90;;;;;;5139974;27;19995;-58
2022/01/05 13:06:16;;;;;;;;;;;7.50;99.90;;;;;;5128969;27;19932;-58
2022/01/05 13:08:46;;;;;;;;;;;7.60;99.90;;;;;;5135706;27;20022;-60
2022/01/05 13:11:12;;;;;;;;;;;7.50;99.90;;;;;;5131751;27;20365;-56
2022/01/05 13:13:41;;;;;;;;;;;7.50;99.90;;;;;;5130650;27;19974;-57
2022/01/05 13:16:08;;;;;;;;;;;7.50;99.90;;;;;;5125361;27;19927;-57
2022/01/05 13:18:33;;;;;;;;;;;7.80;99.90;;;;;;5126283;27;20277;-56
2022/01/05 13:20:59;;;;;;;;;;;8.20;99.90;;;;;;5134723;27;20413;-60
2022/01/05 13:23:24;;;;;;;;;;;7.70;99.90;;;;;;5131110;27;19927;-58
2022/01/05 13:25:50;;;;;;;;;;;7.70;99.90;;;;;;5137071;27;20037;-56
2022/01/05 13:28:15;;;;;;;;;;;7.60;99.90;;;;;;5125112;27;20068;-57
2022/01/05 13:30:45;;;;;;;;;;;7.70;99.90;;;;;;5126945;27;20400;-63
2022/01/05 13:33:13;;;;;;;;;;;7.90;99.90;;;;;;5135927;27;19976;-57
2022/01/05 13:35:38;;;;;;;;;;;7.80;99.90;;;;;;5130143;27;20416;-66
2022/01/05 13:38:05;;;;;;;;;;;7.90;99.90;;;;;;5142033;27;19927;-55
2022/01/05 13:40:33;;;;;;;;;;;7.70;99.90;;;;;;5134325;27;20381;-57
2022/01/05 13:43:06;;;;;;;;;;;7.50;99.90;;;;;;5126161;27;19984;-60
2022/01/05 13:45:35;;;;;;;;;;;7.10;99.90;;;;;;5137153;27;19927;-60
2022/01/05 13:48:04;;;;;;;;;;;7.00;99.90;;;;;;5142006;27;19935;-57
2022/01/05 13:50:34;;;;;;;;;;;6.70;99.90;;;;;;5139080;27;19973;-59
2022/01/05 13:53:01;;;;;;;;;;;6.60;99.90;;;;;;5137338;27;19931;-64
2022/01/05 13:55:35;;;;;;;;;;;6.50;99.90;;;;;;5130299;27;19970;-61
2022/01/05 13:58:05;;;;;;;;;;;6.40;99.90;;;;;;5130060;27;20636;-57
2022/01/05 14:00:31;;;;;;;;;;;8.00;99.90;;;;;;5125846;27;19953;-63
2022/01/05 14:02:56;;;;;;;;;;;6.40;99.90;;;;;;5132165;27;20391;-65
2022/01/05 14:05:22;;;;;;;;;;;6.40;99.90;;;;;;5134681;27;20403;-64
2022/01/05 14:08:00;;;;;;;;;;;6.40;99.90;;;;;;5130370;27;19935;-62
2022/01/05 14:10:26;;;;;;;;;;;6.50;99.90;;;;;;5126368;27;20006;-71
2022/01/05 14:12:59;;;;;;;;;;;6.50;99.90;;;;;;5131982;27;20332;-68
2022/01/05 14:15:28;;;;;;;;;;;6.40;99.90;;;;;;5135418;27;19927;-64
2022/01/05 14:18:14;;;;;;;;;;;6.90;99.90;;;;;;5121740;27;19934;-67
2022/01/05 14:20:47;;;;;;;;;;;6.60;99.90;;;;;;5142014;27;19971;-64
2022/01/05 14:23:14;;;;;;;;;;;6.60;99.90;;;;;;5134075;27;19927;-68
2022/01/05 14:25:44;;;;;;;;;;;6.60;99.90;;;;;;5130446;27;20054;-62
2022/01/05 14:28:11;;;;;;;;;;;6.70;99.90;;;;;;5128274;27;19964;-62
2022/01/05 14:30:37;;;;;;;;;;;6.60;99.90;;;;;;5141863;27;19934;-68
2022/01/05 14:33:02;;;;;;;;;;;6.40;99.90;;;;;;5130616;27;19931;-65
2022/01/05 14:35:28;;;;;;;;;;;6.70;99.90;;;;;;5134690;27;20346;-65